Shawnee Mission, KS (66205)

6:28 PM CDT on September 23, 2014 (GMT -0500)
Ham radio station N0GMG Westwood Ks | Change Station
CLOSE
Current Station
Personal Weather Station
Location: Westwood, KS
Elevation: 937 ft
Nearby Weather Stations

Elev 937 ft 39.03 °N, 94.61 °W | Updated 5 seconds ago

Partly Cloudy
Partly Cloudy
71.5 °F
Feels Like 77 °F
N
2.7
Wind Variable Wind from SE
Gusts 8.6 mph

Today
High -- | Low -- °F
--% Chance of Precip.
Yesterday
High -- | Low -- °F
Precip. -- in
7:07 AM 7:13 PM
Waning Crescent, 0% visible
Pressure 30.13 in
Visibility 10.0 miles
Clouds Clear
Heat Index 77 °F
Dew Point 53 °F
Humidity 52%
Rainfall 0.00 in
Snow Depth Not available.
UV 1 out of 12
Pollen 4.30 out of 12
Air Quality Not available.
Flu Activity Not available.
METAR KMKC 232254Z 15008G15KT 10SM CLR 23/11 A3014 RMK AO2 SLP203 T02330106

More Conditions Fewer Conditions

Pressure 30.13 in
Visibility 10.0 miles
Clouds Clear
Heat Index 77 °F
Dew Point 53 °F
Humidity 52%
Rainfall 0.00 in
Snow Depth Not available.
UV 1 out of 12
Pollen 4.30 out of 12
Air Quality Not available.
Flu Activity Not available.
METAR KMKC 232254Z 15008G15KT 10SM CLR 23/11 A3014 RMK AO2 SLP203 T02330106

More Conditions Fewer Conditions

10-Day Weather Forecast

Almanac

Astronomy

Sep. 23, 2014 Rise Set
Actual Time 7:07 AM CDT 7:13 PM CDT
Civil Twilight 6:40 AM CDT 7:40 PM CDT
Nautical Twilight 6:09 AM CDT 8:11 PM CDT
Astronomical Twilight 5:37 AM CDT 8:43 PM CDT
Moon 6:32 AM CDT 6:53 PM CDT
Length of Visible Light 13h 00m
Length of Day
12h 06m
Tomorrow will be 2m 31s shorter.
Waning Crescent, 0% of the Moon is Illuminated
Today
Waning Crescent
Sep 24
New
Oct 1
First Quarter
Oct 8
Full
Oct 15
Last Quarter

Today's Extremes

State Highs State Lows

Community

WunderPhotos

Upload Photos

1,755,821 photos uploaded!

WunderBlogs® & News

Nearby

Snow Depth

Station Depth Elevation
No new snow has been reported.

Earthquake Activity

City Distance Mag. Time & Date
No recent earthquake activity has been reported nearby.
Minimum magnitude displayed is 2.5.

Coastal Water Temperatures

Place Temperature
No Stations Reporting

Nearby Weather Stations